createdAt,value
2018-04-26T00:00:41.786Z,16.83
2018-04-26T00:03:39.073Z,14.73
2018-04-26T00:06:36.328Z,17.27
2018-04-26T00:09:33.480Z,12.97
2018-04-26T00:12:30.741Z,16.07
2018-04-26T00:15:28.763Z,19.07
2018-04-26T00:18:26.924Z,17.10
2018-04-26T00:21:24.950Z,16.83
2018-04-26T00:24:22.979Z,15.87
2018-04-26T00:27:20.978Z,16.77
2018-04-26T00:30:19.297Z,21.20
2018-04-26T00:33:17.167Z,14.67
2018-04-26T00:36:14.313Z,12.33
2018-04-26T00:39:12.167Z,13.03
2018-04-26T00:42:10.555Z,14.33
2018-04-26T00:45:08.949Z,12.00
2018-04-26T00:48:06.835Z,10.40
2018-04-26T00:51:03.976Z,14.17
2018-04-26T00:54:02.162Z,13.60
2018-04-26T00:57:00.322Z,14.90
2018-04-26T00:59:58.640Z,15.97
2018-04-26T01:02:56.767Z,11.57
2018-04-26T01:05:54.954Z,11.30
2018-04-26T01:08:52.775Z,11.97
2018-04-26T01:11:50.893Z,10.47
2018-04-26T01:14:48.041Z,10.93
2018-04-26T01:17:45.304Z,12.50
2018-04-26T01:20:43.267Z,8.43
2018-04-26T01:23:41.303Z,8.80
2018-04-26T01:26:39.357Z,9.97
2018-04-26T01:29:37.367Z,11.10
2018-04-26T01:32:34.781Z,8.47
2018-04-26T01:35:32.705Z,11.60
2018-04-26T01:38:30.757Z,10.33
2018-04-26T01:41:27.925Z,7.53
2018-04-26T01:44:25.137Z,8.83
2018-04-26T01:47:22.669Z,8.93
2018-04-26T01:50:20.750Z,10.73
2018-04-26T01:53:18.037Z,9.27
2018-04-26T01:56:16.096Z,12.20
2018-04-26T01:59:14.119Z,10.47
2018-04-26T02:02:20.085Z,7.10
2018-04-26T02:05:25.206Z,12.10
2018-04-26T02:08:31.320Z,8.20
2018-04-26T02:11:37.508Z,13.67
2018-04-26T02:14:43.778Z,8.60
2018-04-26T02:17:50.147Z,9.77
2018-04-26T02:20:56.451Z,8.90
2018-04-26T02:24:02.566Z,8.90
2018-04-26T02:27:08.839Z,8.00
2018-04-26T02:30:14.885Z,7.40
2018-04-26T02:33:21.127Z,6.73
2018-04-26T02:36:26.510Z,6.83
2018-04-26T02:39:33.258Z,6.00
2018-04-26T02:42:38.417Z,5.30
2018-04-26T02:45:43.540Z,5.97
2018-04-26T02:48:49.707Z,5.60
2018-04-26T02:51:56.892Z,4.93
2018-04-26T02:55:03.028Z,6.13
2018-04-26T02:58:09.278Z,4.63
2018-04-26T03:01:15.588Z,5.37
2018-04-26T03:04:21.872Z,4.57
2018-04-26T03:07:28.156Z,5.30
2018-04-26T03:10:33.519Z,4.97
2018-04-26T03:13:39.687Z,4.13
2018-04-26T03:16:45.992Z,4.30
2018-04-26T03:19:52.077Z,4.50
2018-04-26T03:22:58.140Z,4.60
2018-04-26T03:26:05.079Z,4.40
2018-04-26T03:29:11.129Z,6.00
2018-04-26T03:32:17.015Z,4.40
2018-04-26T03:35:23.181Z,4.30
2018-04-26T03:38:28.470Z,3.30
2018-04-26T03:41:33.846Z,3.70
2018-04-26T03:44:39.229Z,4.07
2018-04-26T03:47:44.904Z,3.60
2018-04-26T03:50:55.613Z,3.50
2018-04-26T03:54:02.506Z,4.57
2018-04-26T03:57:08.704Z,3.90
2018-04-26T04:00:27.221Z,4.17
2018-04-26T04:03:45.265Z,3.70
2018-04-26T04:06:51.506Z,3.60
2018-04-26T04:09:56.690Z,4.00
2018-04-26T04:13:02.823Z,4.30
2018-04-26T04:16:08.944Z,4.60
2018-04-26T04:19:18.176Z,3.17
2018-04-26T04:22:23.270Z,8.20
2018-04-26T04:25:29.671Z,3.30
2018-04-26T04:28:35.699Z,3.40
2018-04-26T04:31:41.776Z,8.17
2018-04-26T04:34:47.745Z,4.70
2018-04-26T04:37:53.610Z,5.63
2018-04-26T04:41:00.545Z,5.13
2018-04-26T04:44:06.773Z,5.30
2018-04-26T04:47:12.740Z,7.00
2018-04-26T04:50:18.012Z,8.07
2018-04-26T04:53:23.332Z,6.00
2018-04-26T04:56:29.303Z,5.57
2018-04-26T04:59:35.456Z,8.40
2018-04-26T05:02:41.510Z,5.40
2018-04-26T05:05:46.673Z,12.03
2018-04-26T05:08:52.793Z,8.53
2018-04-26T05:11:57.988Z,5.80
2018-04-26T05:15:04.035Z,7.77
2018-04-26T05:18:10.277Z,12.60
2018-04-26T05:21:16.590Z,5.87
2018-04-26T05:24:22.661Z,9.67
2018-04-26T05:27:28.780Z,13.40
2018-04-26T05:30:35.056Z,7.60
2018-04-26T05:33:41.163Z,11.03
2018-04-26T05:36:47.253Z,8.53
2018-04-26T05:39:53.196Z,5.90
2018-04-26T05:42:59.340Z,7.73
2018-04-26T05:46:05.636Z,10.20
2018-04-26T05:49:11.872Z,9.47
2018-04-26T05:52:17.340Z,7.70
2018-04-26T05:55:23.604Z,8.60
2018-04-26T05:58:29.716Z,8.80
2018-04-26T06:01:35.899Z,11.30
2018-04-26T06:04:42.171Z,13.87
2018-04-26T06:07:48.280Z,7.10
2018-04-26T06:10:53.722Z,14.87
2018-04-26T06:13:59.080Z,9.33
2018-04-26T06:17:05.304Z,8.70
2018-04-26T06:20:11.322Z,7.87
2018-04-26T06:23:17.497Z,11.73
2018-04-26T06:26:23.963Z,8.57
2018-04-26T06:29:29.991Z,9.70
2018-04-26T06:32:36.131Z,5.90
2018-04-26T06:35:42.450Z,8.73
2018-04-26T06:38:48.720Z,6.40
2018-04-26T06:41:54.760Z,11.50
2018-04-26T06:45:00.810Z,8.00
2018-04-26T06:48:06.897Z,6.33
2018-04-26T06:51:13.040Z,8.00
2018-04-26T06:54:19.044Z,8.33
2018-04-26T06:57:24.513Z,7.13
2018-04-26T07:00:31.134Z,5.70
2018-04-26T07:03:36.801Z,6.20
2018-04-26T07:06:43.589Z,6.30
2018-04-26T07:09:50.686Z,7.50
2018-04-26T07:12:56.893Z,6.90
2018-04-26T07:16:03.783Z,5.63
2018-04-26T07:19:10.046Z,8.27
2018-04-26T07:22:16.064Z,6.83
2018-04-26T07:25:22.341Z,6.20
2018-04-26T07:28:28.384Z,5.63
2018-04-26T07:31:34.595Z,6.03
2018-04-26T07:34:40.844Z,5.53
2018-04-26T07:37:47.038Z,7.27
2018-04-26T07:40:54.345Z,6.53
2018-04-26T07:44:00.592Z,6.10
2018-04-26T07:47:06.664Z,6.67
2018-04-26T07:50:12.784Z,6.53
2018-04-26T07:53:19.268Z,5.67
2018-04-26T07:56:25.548Z,6.03
2018-04-26T07:59:31.470Z,7.00
2018-04-26T08:02:37.723Z,6.63
2018-04-26T08:05:44.598Z,6.30
2018-04-26T08:08:50.957Z,8.60
2018-04-26T08:11:57.202Z,6.17
2018-04-26T08:15:03.208Z,4.63
2018-04-26T08:18:09.308Z,5.07
2018-04-26T08:21:15.853Z,5.07
2018-04-26T08:24:22.970Z,5.70
2018-04-26T08:27:30.113Z,5.47
2018-04-26T08:30:36.492Z,4.70
2018-04-26T08:33:42.404Z,4.90
2018-04-26T08:36:48.245Z,3.37
2018-04-26T08:39:55.328Z,4.43
2018-04-26T08:43:01.307Z,5.60
2018-04-26T08:46:07.405Z,8.20
2018-04-26T08:49:13.877Z,3.53
2018-04-26T08:52:20.680Z,5.53
2018-04-26T08:55:27.820Z,3.40
2018-04-26T08:58:34.938Z,4.10
2018-04-26T09:01:41.130Z,4.50
2018-04-26T09:04:47.503Z,5.53
2018-04-26T09:07:53.691Z,2.93
2018-04-26T09:10:59.144Z,4.50
2018-04-26T09:14:05.171Z,3.80
2018-04-26T09:17:11.266Z,7.10
2018-04-26T09:20:17.393Z,3.83
2018-04-26T09:23:23.777Z,5.40
2018-04-26T09:26:30.131Z,3.93
2018-04-26T09:29:36.304Z,5.93
2018-04-26T09:32:42.432Z,3.57
2018-04-26T09:35:48.536Z,4.37
2018-04-26T09:38:54.830Z,2.87
2018-04-26T09:42:01.184Z,3.70
2018-04-26T09:45:07.451Z,5.30
2018-04-26T09:48:14.477Z,10.07
2018-04-26T09:51:20.339Z,3.40
2018-04-26T09:54:26.346Z,3.90
2018-04-26T09:57:32.473Z,3.50
2018-04-26T10:00:38.722Z,3.47
2018-04-26T10:03:46.580Z,3.50
2018-04-26T10:06:58.580Z,4.67
2018-04-26T10:10:04.643Z,5.10
2018-04-26T10:13:10.839Z,5.03
2018-04-26T10:16:33.122Z,4.23
2018-04-26T10:19:39.200Z,3.47
2018-04-26T10:22:45.085Z,5.23
2018-04-26T10:25:51.227Z,4.83
2018-04-26T10:28:57.473Z,6.23
2018-04-26T10:32:03.959Z,5.30
2018-04-26T10:35:10.196Z,5.77
2018-04-26T10:38:16.187Z,4.47
2018-04-26T10:41:22.721Z,5.63
2018-04-26T10:44:30.113Z,5.47
2018-04-26T10:47:36.310Z,4.07
2018-04-26T10:50:42.136Z,5.63
2018-04-26T10:53:47.385Z,6.30
2018-04-26T10:56:52.951Z,7.57
2018-04-26T10:59:59.004Z,9.30
2018-04-26T11:03:07.679Z,3.90
2018-04-26T11:06:14.628Z,5.33
2018-04-26T11:09:21.377Z,4.07
2018-04-26T11:12:27.803Z,9.40
2018-04-26T11:15:48.733Z,4.03
2018-04-26T11:18:54.467Z,6.20
2018-04-26T11:22:01.480Z,4.97
2018-04-26T11:25:09.105Z,4.47
2018-04-26T11:28:18.942Z,7.40
2018-04-26T11:31:24.903Z,6.80
2018-04-26T11:34:30.927Z,5.47
2018-04-26T11:37:36.827Z,4.20
2018-04-26T11:40:42.931Z,4.50
2018-04-26T11:43:49.016Z,7.00
2018-04-26T11:46:55.183Z,6.43
2018-04-26T11:50:02.151Z,4.87
2018-04-26T11:53:09.186Z,4.63
2018-04-26T11:56:16.176Z,6.63
2018-04-26T11:59:23.123Z,7.10
2018-04-26T12:02:29.392Z,5.70
2018-04-26T12:05:36.006Z,7.00
2018-04-26T12:08:43.097Z,4.20
2018-04-26T12:11:50.160Z,6.83
2018-04-26T12:14:57.243Z,6.80
2018-04-26T12:18:03.640Z,6.07
2018-04-26T12:21:10.398Z,4.80
2018-04-26T12:24:16.359Z,4.97
2018-04-26T12:27:22.679Z,7.23
2018-04-26T12:30:28.875Z,8.60
2018-04-26T12:33:34.971Z,8.17
2018-04-26T12:36:41.070Z,5.07
2018-04-26T12:39:47.235Z,7.07
2018-04-26T12:42:53.207Z,6.40
2018-04-26T12:45:59.586Z,5.53
2018-04-26T12:49:05.709Z,7.00
2018-04-26T12:52:11.992Z,9.40
2018-04-26T12:55:17.885Z,5.13
2018-04-26T12:58:23.755Z,4.77
2018-04-26T13:01:29.979Z,6.33
2018-04-26T13:04:36.096Z,7.50
2018-04-26T13:07:42.891Z,6.83
2018-04-26T13:10:49.068Z,3.70
2018-04-26T13:13:54.649Z,6.97
2018-04-26T13:17:00.463Z,7.57
2018-04-26T13:20:07.160Z,4.10
2018-04-26T13:23:13.555Z,9.63
2018-04-26T13:26:19.693Z,12.83
2018-04-26T13:29:26.509Z,6.97
2018-04-26T13:32:33.465Z,4.57
2018-04-26T13:35:40.770Z,8.27
2018-04-26T13:38:46.667Z,5.27
2018-04-26T13:41:52.192Z,4.53
2018-04-26T13:44:58.236Z,6.80
2018-04-26T13:48:04.445Z,8.17
2018-04-26T13:51:10.930Z,4.77
2018-04-26T13:54:17.105Z,4.93
2018-04-26T13:57:22.642Z,5.90
2018-04-26T14:00:28.861Z,5.73
2018-04-26T14:03:34.778Z,5.60
2018-04-26T14:06:41.605Z,4.80
2018-04-26T14:09:47.792Z,14.57
2018-04-26T14:12:53.874Z,5.53
2018-04-26T14:15:59.914Z,6.57
2018-04-26T14:19:05.939Z,5.83
2018-04-26T14:22:11.847Z,8.40
2018-04-26T14:25:18.175Z,4.73
2018-04-26T14:28:24.214Z,5.43
2018-04-26T14:31:30.859Z,4.27
2018-04-26T14:34:36.714Z,3.37
2018-04-26T14:37:42.205Z,5.93
2018-04-26T14:40:48.321Z,5.37
2018-04-26T14:43:54.075Z,3.80
2018-04-26T14:47:00.325Z,3.80
2018-04-26T14:50:08.111Z,4.40
2018-04-26T14:53:14.249Z,3.40
2018-04-26T14:56:20.236Z,5.30
2018-04-26T14:59:26.473Z,4.40
2018-04-26T15:02:32.534Z,3.60
2018-04-26T15:05:38.716Z,5.87
2018-04-26T15:08:44.720Z,5.50
2018-04-26T15:11:50.662Z,4.83
2018-04-26T15:14:56.671Z,9.97
2018-04-26T15:18:02.818Z,7.03
2018-04-26T15:21:08.771Z,5.53
2018-04-26T15:24:14.813Z,3.93
2018-04-26T15:27:20.808Z,7.17
2018-04-26T15:30:27.042Z,7.53
2018-04-26T15:33:33.118Z,6.53
2018-04-26T15:36:38.475Z,4.03
2018-04-26T15:39:44.835Z,5.47
2018-04-26T15:42:51.202Z,4.73
2018-04-26T15:45:57.169Z,6.73
2018-04-26T15:49:02.312Z,6.70
2018-04-26T15:52:08.231Z,6.77
2018-04-26T15:55:19.966Z,5.63
2018-04-26T15:58:46.536Z,4.20
2018-04-26T16:02:27.867Z,9.80
2018-04-26T16:05:45.327Z,4.43
2018-04-26T16:12:52.418Z,5.77
2018-04-26T16:16:16.594Z,6.67
2018-04-26T16:19:43.732Z,6.63
2018-04-26T16:23:08.161Z,5.43
2018-04-26T16:26:26.449Z,6.37
2018-04-26T16:29:46.755Z,5.87
2018-04-26T16:33:10.902Z,5.00
2018-04-26T16:39:58.083Z,6.03
2018-04-26T16:43:04.309Z,8.70
2018-04-26T16:46:10.543Z,7.17
2018-04-26T16:49:16.489Z,10.63
2018-04-26T16:52:22.523Z,6.50
2018-04-26T16:55:28.776Z,6.70
2018-04-26T16:58:35.034Z,7.37
2018-04-26T17:01:41.293Z,8.67
2018-04-26T17:04:47.651Z,11.70
2018-04-26T17:07:53.774Z,6.40
2018-04-26T17:11:00.037Z,8.93
2018-04-26T17:14:06.923Z,7.40
2018-04-26T17:17:12.993Z,8.97
2018-04-26T17:20:19.048Z,9.23
2018-04-26T17:23:24.574Z,7.67
2018-04-26T17:26:30.389Z,6.10
2018-04-26T17:29:36.391Z,7.93
2018-04-26T17:32:42.529Z,6.43
2018-04-26T17:35:48.424Z,7.60
2018-04-26T17:38:54.380Z,10.10
2018-04-26T17:42:00.434Z,11.03
2018-04-26T17:45:06.108Z,11.93
2018-04-26T17:48:12.104Z,10.53
2018-04-26T17:51:18.157Z,8.30
2018-04-26T17:54:25.096Z,13.63
2018-04-26T17:57:31.105Z,10.67
2018-04-26T18:00:37.008Z,8.77
2018-04-26T18:03:42.891Z,11.03
2018-04-26T18:06:48.904Z,10.57
2018-04-26T18:09:55.792Z,10.23
2018-04-26T18:13:01.574Z,7.43
2018-04-26T18:16:07.525Z,8.57
2018-04-26T18:19:13.945Z,11.13
2018-04-26T18:22:20.316Z,10.13
2018-04-26T18:25:26.060Z,14.67
2018-04-26T18:28:31.836Z,13.47
2018-04-26T18:31:37.900Z,11.60
2018-04-26T18:34:43.867Z,10.77
2018-04-26T18:37:49.721Z,11.63
2018-04-26T18:40:55.661Z,8.10
2018-04-26T18:44:01.540Z,20.33
2018-04-26T18:47:07.469Z,12.40
2018-04-26T18:50:13.516Z,21.83
2018-04-26T18:53:19.417Z,8.50
2018-04-26T18:56:25.575Z,9.77
2018-04-26T18:59:31.309Z,12.27
2018-04-26T19:02:37.247Z,10.67
2018-04-26T19:05:44.013Z,11.33
2018-04-26T19:08:50.006Z,12.27
2018-04-26T19:11:56.513Z,10.53
2018-04-26T19:15:03.150Z,11.57
2018-04-26T19:18:09.001Z,11.20
2018-04-26T19:21:15.857Z,14.67
2018-04-26T19:24:22.957Z,11.37
2018-04-26T19:27:29.080Z,11.10
2018-04-26T19:30:35.012Z,16.13
2018-04-26T19:33:41.000Z,11.37
2018-04-26T19:36:47.776Z,8.33
2018-04-26T19:39:54.796Z,10.93
2018-04-26T19:43:01.425Z,11.20
2018-04-26T19:46:07.463Z,11.40
2018-04-26T19:49:13.420Z,9.73
2018-04-26T19:52:20.539Z,9.77
2018-04-26T19:55:26.117Z,10.13
2018-04-26T19:58:32.007Z,8.40
2018-04-26T20:01:38.006Z,11.03
2018-04-26T20:04:43.873Z,10.07
2018-04-26T20:07:49.756Z,13.70
2018-04-26T20:10:56.001Z,16.37
2018-04-26T20:14:06.063Z,13.82
2018-04-26T20:17:12.683Z,13.68
2018-04-26T20:20:21.555Z,10.70
2018-04-26T20:23:29.320Z,15.00
2018-04-26T20:26:35.075Z,12.17
2018-04-26T20:29:40.634Z,24.53
2018-04-26T20:32:46.658Z,8.60
2018-04-26T20:35:54.472Z,13.43
2018-04-26T20:39:00.326Z,16.93
2018-04-26T20:42:12.205Z,11.98
2018-04-26T20:45:17.990Z,17.85
2018-04-26T20:48:23.969Z,14.73
2018-04-26T20:51:29.869Z,13.07
2018-04-26T20:54:35.939Z,11.97
2018-04-26T20:57:42.679Z,11.40
2018-04-26T21:00:48.612Z,12.33
2018-04-26T21:03:54.456Z,11.70
2018-04-26T21:07:00.457Z,13.70
2018-04-26T21:10:07.269Z,12.60
2018-04-26T21:13:13.028Z,12.97
2018-04-26T21:16:18.800Z,9.27
2018-04-26T21:19:24.554Z,9.88
2018-04-26T21:22:30.297Z,11.73
2018-04-26T21:25:36.511Z,17.47
2018-04-26T21:28:44.448Z,13.07
2018-04-26T21:31:51.400Z,14.03
2018-04-26T21:34:59.133Z,16.37
2018-04-26T21:38:07.692Z,15.33
2018-04-26T21:41:15.057Z,14.40
2018-04-26T21:44:24.324Z,9.20
2018-04-26T21:47:29.988Z,15.63
2018-04-26T21:50:43.132Z,12.03
2018-04-26T21:53:56.791Z,13.47
2018-04-26T21:57:09.642Z,11.43
2018-04-26T22:00:23.250Z,10.13
2018-04-26T22:03:45.857Z,10.93
2018-04-26T22:06:54.320Z,13.70
2018-04-26T22:10:00.947Z,18.33
2018-04-26T22:13:07.772Z,13.30
2018-04-26T22:16:14.638Z,19.83
2018-04-26T22:19:21.770Z,16.47
2018-04-26T22:22:28.217Z,24.20
2018-04-26T22:25:35.147Z,18.73
2018-04-26T22:28:41.973Z,17.37
2018-04-26T22:31:49.012Z,19.85
2018-04-26T22:34:55.562Z,21.55
2018-04-26T22:38:05.282Z,21.80
2018-04-26T22:41:12.669Z,22.02
2018-04-26T22:44:19.297Z,20.20
2018-04-26T22:47:27.934Z,21.73
2018-04-26T22:50:34.877Z,21.87
2018-04-26T22:53:42.620Z,27.10
2018-04-26T22:56:49.323Z,21.27
2018-04-26T22:59:56.123Z,33.35
2018-04-26T23:03:02.060Z,24.98
2018-04-26T23:06:08.773Z,32.13
2018-04-26T23:09:15.365Z,22.10
2018-04-26T23:12:21.191Z,36.08
2018-04-26T23:15:28.171Z,21.60
2018-04-26T23:18:34.230Z,17.80
2018-04-26T23:21:40.718Z,15.43
2018-04-26T23:24:46.630Z,21.73
2018-04-26T23:27:52.470Z,16.62
2018-04-26T23:30:58.498Z,21.23
2018-04-26T23:34:04.350Z,14.13
2018-04-26T23:37:10.292Z,18.60
2018-04-26T23:40:16.282Z,17.55
2018-04-26T23:43:22.176Z,15.23
2018-04-26T23:46:28.009Z,17.27
2018-04-26T23:49:33.757Z,16.80
2018-04-26T23:52:39.959Z,21.70
2018-04-26T23:55:46.763Z,18.50
2018-04-26T23:58:52.866Z,20.40
